Time;durP1;ratioP1;P1;durP2;ratioP2;P2;SDS_P1;SDS_P2;PMS_P1;PMS_P2;Temp;Humidity;BMP_temperature;BMP_pressure;BME280_temperature;BME280_humidity;BME280_pressure;Samples;Min_cycle;Max_cycle;Signal;HPM_P1;HPM_P2
2022/03/09 00:00:46;;;;;;;;;;;;;;;;;;5117692;27;20326;-69
2022/03/09 00:03:12;;;;;;;;;;;;;;;;;;5136429;27;19943;-70
2022/03/09 00:05:38;;;;;;;;;;;;;;;;;;5136319;27;19959;-68
2022/03/09 00:08:04;;;;;;;;;;;;;;;;;;5117442;27;19956;-69
2022/03/09 00:10:30;;;;;;;;;;;;;;;;;;5136234;27;19907;-68
2022/03/09 00:12:56;;;;;;;;;;;;;;;;;;5136723;27;19911;-69
2022/03/09 00:15:22;;;;;;;;;;;;;;;;;;5117335;27;20306;-68
2022/03/09 00:17:48;;;;;;;;;;;;;;;;;;5136116;27;19997;-68
2022/03/09 00:20:14;;;;;;;;;;;;;;;;;;5117578;27;20293;-69
2022/03/09 00:22:40;;;;;;;;;;;;;;;;;;5135917;27;19911;-69
2022/03/09 00:25:06;;;;;;;;;;;;;;;;;;5117577;27;19960;-69
2022/03/09 00:27:32;;;;;;;;;;;;;;;;;;5117526;27;20314;-69
2022/03/09 00:29:58;;;;;;;;;;;;;;;;;;5135504;27;20360;-69
2022/03/09 00:32:24;;;;;;;;;;;;;;;;;;5135991;27;19914;-69
2022/03/09 00:34:50;;;;;;;;;;;;;;;;;;5135954;27;19907;-69
2022/03/09 00:37:16;;;;;;;;;;;;;;;;;;5116992;27;20320;-69
2022/03/09 00:39:42;;;;;;;;;;;;;;;;;;5117321;27;19998;-70
2022/03/09 00:42:08;;;;;;;;;;;;;;;;;;5135256;27;19915;-69
2022/03/09 00:44:34;;;;;;;;;;;;;;;;;;5117210;27;19915;-69
2022/03/09 00:47:00;;;;;;;;;;;;;;;;;;5135588;27;19907;-69
2022/03/09 00:49:26;;;;;;;;;;;;;;;;;;5116724;27;20324;-69
2022/03/09 00:51:52;;;;;;;;;;;;;;;;;;5116853;27;19919;-69
2022/03/09 00:54:18;;;;;;;;;;;;;;;;;;5135504;27;19911;-68
2022/03/09 00:56:44;;;;;;;;;;;;;;;;;;5135040;27;19986;-68
2022/03/09 00:59:10;;;;;;;;;;;;;;;;;;5116907;27;19930;-68
2022/03/09 01:01:36;;;;;;;;;;;;;;;;;;5135221;27;19919;-68
2022/03/09 01:04:02;;;;;;;;;;;;;;;;;;5116535;27;19908;-68
2022/03/09 01:06:28;;;;;;;;;;;;;;;;;;5135182;27;19952;-68
2022/03/09 01:08:55;;;;;;;;;;;;;;;;;;5135194;27;19935;-68
2022/03/09 01:11:21;;;;;;;;;;;;;;;;;;5134342;27;19908;-68
2022/03/09 01:13:47;;;;;;;;;;;;;;;;;;5135267;27;20441;-68
2022/03/09 01:16:13;;;;;;;;;;;;;;;;;;5135294;27;19907;-68
2022/03/09 01:18:39;;;;;;;;;;;;;;;;;;5116176;27;19908;-68
2022/03/09 01:21:04;;;;;;;;;;;;;;;;;;5134922;27;19966;-68
2022/03/09 01:23:30;;;;;;;;;;;;;;;;;;5116603;27;19907;-68
2022/03/09 01:25:56;;;;;;;;;;;;;;;;;;5134614;27;20021;-68
2022/03/09 01:28:22;;;;;;;;;;;;;;;;;;5134889;27;19907;-68
2022/03/09 01:30:48;;;;;;;;;;;;;;;;;;5134847;27;20403;-68
2022/03/09 01:33:15;;;;;;;;;;;;;;;;;;5134453;27;19914;-68
2022/03/09 01:35:41;;;;;;;;;;;;;;;;;;5134853;27;19908;-68
2022/03/09 01:38:07;;;;;;;;;;;;;;;;;;5116322;28;19943;-68
2022/03/09 01:40:33;;;;;;;;;;;;;;;;;;5134261;27;20337;-68
2022/03/09 01:42:58;;;;;;;;;;;;;;;;;;5134691;27;20005;-69
2022/03/09 01:45:25;;;;;;;;;;;;;;;;;;5134394;28;20296;-68
2022/03/09 01:47:51;;;;;;;;;;;;;;;;;;5134680;28;19912;-68
2022/03/09 01:50:17;;;;;;;;;;;;;;;;;;5134476;28;19976;-68
2022/03/09 01:52:43;;;;;;;;;;;;;;;;;;5134136;28;19911;-68
2022/03/09 01:55:09;;;;;;;;;;;;;;;;;;5134636;28;20335;-68
2022/03/09 01:57:35;;;;;;;;;;;;;;;;;;5134619;28;19942;-68
2022/03/09 02:00:01;;;;;;;;;;;;;;;;;;5115726;28;19907;-69
2022/03/09 02:02:27;;;;;;;;;;;;;;;;;;5134462;28;19923;-69
2022/03/09 02:04:53;;;;;;;;;;;;;;;;;;5116084;28;20274;-68
2022/03/09 02:09:41;;;;;;;;;;;;;;;;;;5134162;28;19952;-68
2022/03/09 02:10:05;;;;;;;;;;;;;;;;;;5134455;28;19907;-69
2022/03/09 02:12:31;;;;;;;;;;;;;;;;;;5134801;28;19915;-69
2022/03/09 02:14:57;;;;;;;;;;;;;;;;;;5133988;28;19907;-69
2022/03/09 02:17:23;;;;;;;;;;;;;;;;;;5134528;28;20356;-69
2022/03/09 02:19:49;;;;;;;;;;;;;;;;;;5134729;28;19911;-69
2022/03/09 02:22:15;;;;;;;;;;;;;;;;;;5133851;27;20426;-69
2022/03/09 02:24:41;;;;;;;;;;;;;;;;;;5138285;27;19907;-69
2022/03/09 02:27:07;;;;;;;;;;;;;;;;;;5138373;27;20280;-69
2022/03/09 02:29:33;;;;;;;;;;;;;;;;;;5137872;27;19960;-69
2022/03/09 02:31:59;;;;;;;;;;;;;;;;;;5119954;27;19907;-69
2022/03/09 02:34:25;;;;;;;;;;;;;;;;;;5138414;27;19907;-69
2022/03/09 02:36:51;;;;;;;;;;;;;;;;;;5137771;27;19915;-69
2022/03/09 02:39:17;;;;;;;;;;;;;;;;;;5138095;27;19908;-69
2022/03/09 02:41:43;;;;;;;;;;;;;;;;;;5137603;27;19973;-68
2022/03/09 02:44:09;;;;;;;;;;;;;;;;;;5119556;27;20420;-69
2022/03/09 02:46:35;;;;;;;;;;;;;;;;;;5119462;27;19955;-69
2022/03/09 02:49:01;;;;;;;;;;;;;;;;;;5119106;27;19914;-69
2022/03/09 02:51:27;;;;;;;;;;;;;;;;;;5119226;27;19919;-69
2022/03/09 02:53:53;;;;;;;;;;;;;;;;;;5137769;27;19931;-69
2022/03/09 02:56:19;;;;;;;;;;;;;;;;;;5137374;27;19907;-69
2022/03/09 02:58:45;;;;;;;;;;;;;;;;;;5119291;27;19990;-69
2022/03/09 03:01:13;;;;;;;;;;;;;;;;;;5119236;27;20006;-69
2022/03/09 03:03:39;;;;;;;;;;;;;;;;;;5137426;27;19912;-69
2022/03/09 03:06:05;;;;;;;;;;;;;;;;;;5119349;27;20326;-69
2022/03/09 03:08:31;;;;;;;;;;;;;;;;;;5119240;27;20322;-69
2022/03/09 03:10:57;;;;;;;;;;;;;;;;;;5137475;27;19908;-69
2022/03/09 03:13:23;;;;;;;;;;;;;;;;;;5119026;27;19960;-68
2022/03/09 03:15:49;;;;;;;;;;;;;;;;;;5137431;27;19911;-69
2022/03/09 03:18:15;;;;;;;;;;;;;;;;;;5118512;27;19998;-69
2022/03/09 03:20:41;;;;;;;;;;;;;;;;;;5137247;27;19911;-69
2022/03/09 03:23:07;;;;;;;;;;;;;;;;;;5137587;27;20002;-69
2022/03/09 03:25:33;;;;;;;;;;;;;;;;;;5136776;27;20005;-69
2022/03/09 03:27:59;;;;;;;;;;;;;;;;;;5137222;27;19907;-69
2022/03/09 03:30:24;;;;;;;;;;;;;;;;;;5137118;27;19914;-69
2022/03/09 03:32:50;;;;;;;;;;;;;;;;;;5118397;27;19907;-69
2022/03/09 03:35:16;;;;;;;;;;;;;;;;;;5118250;27;19907;-69
2022/03/09 03:37:42;;;;;;;;;;;;;;;;;;5136952;27;19991;-69
2022/03/09 03:40:08;;;;;;;;;;;;;;;;;;5136576;27;19907;-69
2022/03/09 03:42:34;;;;;;;;;;;;;;;;;;5136755;27;19916;-69
2022/03/09 03:45:00;;;;;;;;;;;;;;;;;;5136519;27;19907;-69
2022/03/09 03:47:26;;;;;;;;;;;;;;;;;;5136770;27;19912;-69
2022/03/09 03:49:52;;;;;;;;;;;;;;;;;;5136713;27;19915;-69
2022/03/09 03:52:18;;;;;;;;;;;;;;;;;;5136109;27;19923;-69
2022/03/09 03:54:44;;;;;;;;;;;;;;;;;;5136667;27;19908;-68
2022/03/09 03:57:10;;;;;;;;;;;;;;;;;;5136584;27;19930;-69
2022/03/09 03:59:36;;;;;;;;;;;;;;;;;;5136222;27;19936;-69
2022/03/09 04:02:02;;;;;;;;;;;;;;;;;;5117943;27;19916;-69
2022/03/09 04:04:28;;;;;;;;;;;;;;;;;;5136635;27;19907;-69
2022/03/09 04:06:54;;;;;;;;;;;;;;;;;;5135998;27;19961;-68
2022/03/09 04:09:21;;;;;;;;;;;;;;;;;;5136370;27;19986;-69
2022/03/09 04:11:47;;;;;;;;;;;;;;;;;;5136283;27;19914;-69
2022/03/09 04:14:13;;;;;;;;;;;;;;;;;;5117346;27;19909;-69
2022/03/09 04:16:39;;;;;;;;;;;;;;;;;;5136218;27;20280;-69
2022/03/09 04:19:04;;;;;;;;;;;;;;;;;;5136195;27;19915;-69
2022/03/09 04:21:30;;;;;;;;;;;;;;;;;;5117228;27;20025;-69
2022/03/09 04:23:56;;;;;;;;;;;;;;;;;;5117636;27;19914;-69
2022/03/09 04:26:22;;;;;;;;;;;;;;;;;;5136041;27;20417;-69
2022/03/09 04:28:48;;;;;;;;;;;;;;;;;;5135588;27;19911;-68
2022/03/09 04:31:14;;;;;;;;;;;;;;;;;;5117527;27;20284;-69
2022/03/09 04:33:40;;;;;;;;;;;;;;;;;;5135760;27;19998;-69
2022/03/09 04:36:06;;;;;;;;;;;;;;;;;;5135370;27;20290;-69
2022/03/09 04:38:32;;;;;;;;;;;;;;;;;;5136025;27;19908;-69
2022/03/09 04:40:58;;;;;;;;;;;;;;;;;;5117248;27;20033;-69
2022/03/09 04:43:24;;;;;;;;;;;;;;;;;;5116829;27;19950;-69
2022/03/09 04:45:50;;;;;;;;;;;;;;;;;;5134978;27;20001;-69
2022/03/09 04:48:16;;;;;;;;;;;;;;;;;;5135183;27;19918;-69
2022/03/09 04:50:42;;;;;;;;;;;;;;;;;;5135452;27;19911;-70
2022/03/09 04:53:08;;;;;;;;;;;;;;;;;;5135567;27;19919;-69
2022/03/09 04:55:34;;;;;;;;;;;;;;;;;;5116569;27;20424;-68
2022/03/09 04:58:00;;;;;;;;;;;;;;;;;;5135593;27;19961;-69
2022/03/09 05:00:26;;;;;;;;;;;;;;;;;;5135259;27;19934;-70
2022/03/09 05:02:52;;;;;;;;;;;;;;;;;;5116459;27;19943;-69
2022/03/09 05:05:18;;;;;;;;;;;;;;;;;;5135458;27;19998;-69
2022/03/09 05:07:44;;;;;;;;;;;;;;;;;;5135228;27;20424;-69
2022/03/09 05:10:10;;;;;;;;;;;;;;;;;;5134896;27;19908;-69
2022/03/09 05:12:36;;;;;;;;;;;;;;;;;;5135165;27;19913;-69
2022/03/09 05:15:02;;;;;;;;;;;;;;;;;;5135123;27;20011;-69
2022/03/09 05:17:28;;;;;;;;;;;;;;;;;;5134797;27;19908;-69
2022/03/09 05:19:54;;;;;;;;;;;;;;;;;;5135020;27;19930;-71
2022/03/09 05:22:20;;;;;;;;;;;;;;;;;;5135535;27;19922;-75
2022/03/09 05:24:46;;;;;;;;;;;;;;;;;;5134559;27;19915;-72
2022/03/09 05:27:12;;;;;;;;;;;;;;;;;;5134953;27;19907;-72
2022/03/09 05:29:38;;;;;;;;;;;;;;;;;;5135153;27;19914;-71
2022/03/09 05:32:04;;;;;;;;;;;;;;;;;;5134518;27;19908;-72
2022/03/09 05:34:30;;;;;;;;;;;;;;;;;;5116369;28;20261;-72
2022/03/09 05:36:56;;;;;;;;;;;;;;;;;;5134809;27;20390;-72
2022/03/09 05:39:22;;;;;;;;;;;;;;;;;;5134404;27;19907;-72
2022/03/09 05:41:48;;;;;;;;;;;;;;;;;;5134786;27;19916;-73
2022/03/09 05:44:14;;;;;;;;;;;;;;;;;;5134746;27;20317;-73
2022/03/09 05:46:40;;;;;;;;;;;;;;;;;;5134346;28;19907;-72
2022/03/09 05:49:06;;;;;;;;;;;;;;;;;;5135016;28;19964;-72
2022/03/09 05:51:32;;;;;;;;;;;;;;;;;;5134126;28;19919;-72
2022/03/09 05:53:58;;;;;;;;;;;;;;;;;;5134656;28;19915;-73
2022/03/09 05:56:24;;;;;;;;;;;;;;;;;;5135150;27;20276;-72
2022/03/09 05:58:50;;;;;;;;;;;;;;;;;;5119945;27;19907;-73
2022/03/09 06:01:16;;;;;;;;;;;;;;;;;;5138811;27;19920;-73
2022/03/09 06:03:42;;;;;;;;;;;;;;;;;;5137851;27;19907;-73
2022/03/09 06:06:08;;;;;;;;;;;;;;;;;;5136607;27;19915;-72
2022/03/09 06:08:34;;;;;;;;;;;;;;;;;;5138169;27;19907;-72
2022/03/09 06:11:00;;;;;;;;;;;;;;;;;;5120176;27;19952;-72
2022/03/09 06:13:26;;;;;;;;;;;;;;;;;;5119772;27;20363;-73
2022/03/09 06:15:52;;;;;;;;;;;;;;;;;;5137388;27;19907;-73
2022/03/09 06:18:18;;;;;;;;;;;;;;;;;;5136135;27;19943;-72
2022/03/09 06:20:44;;;;;;;;;;;;;;;;;;5118785;27;19918;-72
2022/03/09 06:23:10;;;;;;;;;;;;;;;;;;5119652;27;20002;-72
2022/03/09 06:25:36;;;;;;;;;;;;;;;;;;5102280;27;19943;-74
2022/03/09 06:28:02;;;;;;;;;;;;;;;;;;5136753;27;20296;-73
2022/03/09 06:30:28;;;;;;;;;;;;;;;;;;5137170;27;19918;-72
2022/03/09 06:32:54;;;;;;;;;;;;;;;;;;5137700;27;20005;-72
2022/03/09 06:35:21;;;;;;;;;;;;;;;;;;5136874;27;20364;-72
2022/03/09 06:37:47;;;;;;;;;;;;;;;;;;5137638;27;19907;-72
2022/03/09 06:40:13;;;;;;;;;;;;;;;;;;5119120;27;19918;-69
2022/03/09 06:42:39;;;;;;;;;;;;;;;;;;5137338;27;19915;-73
2022/03/09 06:45:05;;;;;;;;;;;;;;;;;;5137766;27;19907;-72
2022/03/09 06:47:32;;;;;;;;;;;;;;;;;;5137018;27;19908;-72
2022/03/09 06:49:58;;;;;;;;;;;;;;;;;;5137075;27;19912;-72
2022/03/09 06:52:24;;;;;;;;;;;;;;;;;;5137397;27;19930;-74
2022/03/09 06:54:50;;;;;;;;;;;;;;;;;;5137145;27;19911;-73
2022/03/09 06:57:16;;;;;;;;;;;;;;;;;;5137477;27;20283;-76
2022/03/09 06:59:44;;;;;;;;;;;;;;;;;;5137234;27;19994;-72
2022/03/09 07:02:10;;;;;;;;;;;;;;;;;;5136904;27;20333;-71
2022/03/09 07:04:36;;;;;;;;;;;;;;;;;;5118602;27;20280;-71
2022/03/09 07:07:02;;;;;;;;;;;;;;;;;;5130470;27;19915;-70
2022/03/09 07:09:28;;;;;;;;;;;;;;;;;;5136100;27;19907;-72
2022/03/09 07:11:55;;;;;;;;;;;;;;;;;;5118323;27;19915;-73
2022/03/09 07:14:21;;;;;;;;;;;;;;;;;;5136936;27;19914;-74
2022/03/09 07:16:47;;;;;;;;;;;;;;;;;;5133232;27;19907;-73
2022/03/09 07:19:13;;;;;;;;;;;;;;;;;;5132917;27;20308;-73
2022/03/09 07:21:39;;;;;;;;;;;;;;;;;;5123375;27;19915;-72
2022/03/09 07:24:05;;;;;;;;;;;;;;;;;;5135098;27;19923;-74
2022/03/09 07:26:33;;;;;;;;;;;;;;;;;;5136554;27;20380;-73
2022/03/09 07:28:59;;;;;;;;;;;;;;;;;;5136746;27;20280;-73
2022/03/09 07:31:25;;;;;;;;;;;;;;;;;;5136341;27;19987;-72
2022/03/09 07:33:51;;;;;;;;;;;;;;;;;;5136635;27;19907;-73
2022/03/09 07:36:17;;;;;;;;;;;;;;;;;;5136615;27;19963;-73
2022/03/09 07:38:43;;;;;;;;;;;;;;;;;;5135871;27;19964;-73
2022/03/09 07:41:09;;;;;;;;;;;;;;;;;;5134978;27;19915;-73
2022/03/09 07:43:35;;;;;;;;;;;;;;;;;;5136323;27;19911;-72
2022/03/09 07:46:01;;;;;;;;;;;;;;;;;;5134497;27;19971;-74
2022/03/09 07:48:28;;;;;;;;;;;;;;;;;;5136408;27;19908;-72
2022/03/09 07:50:54;;;;;;;;;;;;;;;;;;5134666;27;20038;-75
2022/03/09 07:53:20;;;;;;;;;;;;;;;;;;5135651;27;20002;-74
2022/03/09 07:55:46;;;;;;;;;;;;;;;;;;5134795;27;19963;-75
2022/03/09 07:58:12;;;;;;;;;;;;;;;;;;5135565;27;20391;-74
2022/03/09 08:00:38;;;;;;;;;;;;;;;;;;5136009;27;20393;-75
2022/03/09 08:03:04;;;;;;;;;;;;;;;;;;5135357;27;19960;-74
2022/03/09 08:05:30;;;;;;;;;;;;;;;;;;5130004;27;20580;-74
2022/03/09 08:07:56;;;;;;;;;;;;;;;;;;5132966;27;19930;-80
2022/03/09 08:10:22;;;;;;;;;;;;;;;;;;5116767;27;19952;-73
2022/03/09 08:12:48;;;;;;;;;;;;;;;;;;5116843;27;19907;-75
2022/03/09 08:15:14;;;;;;;;;;;;;;;;;;5135183;27;20002;-76
2022/03/09 08:17:40;;;;;;;;;;;;;;;;;;5116583;27;19914;-71
2022/03/09 08:20:06;;;;;;;;;;;;;;;;;;5134450;27;20426;-73
2022/03/09 08:22:32;;;;;;;;;;;;;;;;;;5134689;27;19933;-72
2022/03/09 08:24:58;;;;;;;;;;;;;;;;;;5113106;27;19907;-74
2022/03/09 08:27:24;;;;;;;;;;;;;;;;;;5132468;27;19915;-74
2022/03/09 08:29:50;;;;;;;;;;;;;;;;;;5114490;27;20277;-75
2022/03/09 08:32:16;;;;;;;;;;;;;;;;;;5112894;27;19922;-73
2022/03/09 08:34:42;;;;;;;;;;;;;;;;;;5126866;27;20364;-73
2022/03/09 08:37:08;;;;;;;;;;;;;;;;;;5100752;28;19939;-73
2022/03/09 08:39:34;;;;;;;;;;;;;;;;;;5114095;28;19991;-73
2022/03/09 08:42:00;;;;;;;;;;;;;;;;;;5100338;27;20296;-72
2022/03/09 08:44:26;;;;;;;;;;;;;;;;;;5134932;27;19907;-73
2022/03/09 08:46:53;;;;;;;;;;;;;;;;;;5134723;27;19908;-73
2022/03/09 08:49:19;;;;;;;;;;;;;;;;;;5116028;27;19947;-73
2022/03/09 08:51:45;;;;;;;;;;;;;;;;;;5134889;27;19992;-75
2022/03/09 08:54:11;;;;;;;;;;;;;;;;;;5116215;27;20248;-76
2022/03/09 08:56:37;;;;;;;;;;;;;;;;;;5134199;27;19907;-75
2022/03/09 08:59:03;;;;;;;;;;;;;;;;;;5116369;27;19914;-74
2022/03/09 09:01:29;;;;;;;;;;;;;;;;;;5115817;27;20391;-74
2022/03/09 09:03:55;;;;;;;;;;;;;;;;;;5134894;27;19907;-75
2022/03/09 09:06:21;;;;;;;;;;;;;;;;;;5134512;27;20010;-74
2022/03/09 09:08:47;;;;;;;;;;;;;;;;;;5134662;27;19954;-73
2022/03/09 09:11:13;;;;;;;;;;;;;;;;;;5116497;27;20383;-71
2022/03/09 09:13:39;;;;;;;;;;;;;;;;;;5134805;27;19990;-75
2022/03/09 09:16:05;;;;;;;;;;;;;;;;;;5134193;27;20388;-75
2022/03/09 09:18:31;;;;;;;;;;;;;;;;;;5132996;27;19952;-75
2022/03/09 09:20:57;;;;;;;;;;;;;;;;;;5133802;27;19915;-76
2022/03/09 09:23:23;;;;;;;;;;;;;;;;;;5132835;27;19954;-74
2022/03/09 09:25:49;;;;;;;;;;;;;;;;;;5115432;27;20325;-74
2022/03/09 09:28:17;;;;;;;;;;;;;;;;;;5134040;27;19946;-75
2022/03/09 09:30:42;;;;;;;;;;;;;;;;;;5133129;27;19999;-74
2022/03/09 09:33:08;;;;;;;;;;;;;;;;;;5134042;27;20364;-75
2022/03/09 09:35:34;;;;;;;;;;;;;;;;;;5134824;27;19945;-77
2022/03/09 09:38:06;;;;;;;;;;;;;;;;;;5115445;27;20055;-72
2022/03/09 09:40:32;;;;;;;;;;;;;;;;;;5134431;27;19908;-75
2022/03/09 09:42:58;;;;;;;;;;;;;;;;;;5134908;27;19912;-79
2022/03/09 09:45:24;;;;;;;;;;;;;;;;;;5116232;28;19960;-78
2022/03/09 09:47:50;;;;;;;;;;;;;;;;;;5115953;28;19908;-79
2022/03/09 09:50:17;;;;;;;;;;;;;;;;;;5115974;28;20000;-78
2022/03/09 09:52:45;;;;;;;;;;;;;;;;;;5133153;28;20179;-78
2022/03/09 09:55:11;;;;;;;;;;;;;;;;;;5134238;28;19907;-76
2022/03/09 09:57:37;;;;;;;;;;;;;;;;;;5128918;28;19908;-76
2022/03/09 10:00:04;;;;;;;;;;;;;;;;;;5115433;28;19968;-77
2022/03/09 10:02:30;;;;;;;;;;;;;;;;;;5134346;28;19916;-75
2022/03/09 10:04:56;;;;;;;;;;;;;;;;;;5133805;28;19911;-75
2022/03/09 10:07:22;;;;;;;;;;;;;;;;;;5115388;28;19935;-73
2022/03/09 10:09:48;;;;;;;;;;;;;;;;;;5113235;28;19965;-75
2022/03/09 10:12:15;;;;;;;;;;;;;;;;;;5113866;28;20257;-73
2022/03/09 10:14:41;;;;;;;;;;;;;;;;;;5119471;28;20288;-74
2022/03/09 10:17:07;;;;;;;;;;;;;;;;;;5130762;28;20356;-72
2022/03/09 10:19:33;;;;;;;;;;;;;;;;;;5131088;28;19908;-75
2022/03/09 10:21:59;;;;;;;;;;;;;;;;;;5123257;28;19927;-74
2022/03/09 10:24:25;;;;;;;;;;;;;;;;;;5093238;28;20006;-74
2022/03/09 10:26:51;;;;;;;;;;;;;;;;;;5124615;28;20420;-75
2022/03/09 10:29:17;;;;;;;;;;;;;;;;;;5110179;28;20028;-77
2022/03/09 10:31:44;;;;;;;;;;;;;;;;;;5114514;28;19954;-72
2022/03/09 10:34:10;;;;;;;;;;;;;;;;;;5131678;28;20257;-73
2022/03/09 10:36:36;;;;;;;;;;;;;;;;;;5131899;28;19912;-73
2022/03/09 10:39:02;;;;;;;;;;;;;;;;;;5113888;28;19922;-71
2022/03/09 10:41:28;;;;;;;;;;;;;;;;;;5129889;28;19915;-75
2022/03/09 10:43:54;;;;;;;;;;;;;;;;;;5131087;27;19939;-72
2022/03/09 10:46:20;;;;;;;;;;;;;;;;;;5135150;27;19907;-74
2022/03/09 10:48:46;;;;;;;;;;;;;;;;;;5135631;27;19955;-76
2022/03/09 10:51:12;;;;;;;;;;;;;;;;;;5137683;27;19915;-74
2022/03/09 10:53:38;;;;;;;;;;;;;;;;;;5137665;27;19915;-70
2022/03/09 10:56:04;;;;;;;;;;;;;;;;;;5137096;27;19914;-70
2022/03/09 10:58:30;;;;;;;;;;;;;;;;;;5118027;27;20365;-69
2022/03/09 11:00:56;;;;;;;;;;;;;;;;;;5135633;27;19922;-70
2022/03/09 11:03:23;;;;;;;;;;;;;;;;;;5135549;27;19912;-71
2022/03/09 11:05:50;;;;;;;;;;;;;;;;;;5135896;27;19911;-71
2022/03/09 11:08:16;;;;;;;;;;;;;;;;;;5135459;27;19937;-70
2022/03/09 11:10:42;;;;;;;;;;;;;;;;;;5135699;27;20703;-70
2022/03/09 11:13:08;;;;;;;;;;;;;;;;;;5117719;27;19907;-70
2022/03/09 11:15:34;;;;;;;;;;;;;;;;;;5136414;27;20013;-70
2022/03/09 11:18:00;;;;;;;;;;;;;;;;;;5136863;27;19994;-70
2022/03/09 11:20:26;;;;;;;;;;;;;;;;;;5136050;27;19951;-70
2022/03/09 11:22:52;;;;;;;;;;;;;;;;;;5135770;27;20006;-70
2022/03/09 11:25:18;;;;;;;;;;;;;;;;;;5134772;27;20269;-71
2022/03/09 11:27:44;;;;;;;;;;;;;;;;;;5134414;27;19921;-70
2022/03/09 11:30:10;;;;;;;;;;;;;;;;;;5135136;27;19947;-72
2022/03/09 11:32:36;;;;;;;;;;;;;;;;;;5135460;27;19918;-69
2022/03/09 11:35:02;;;;;;;;;;;;;;;;;;5136863;27;19908;-69
2022/03/09 11:37:28;;;;;;;;;;;;;;;;;;5134986;27;19976;-70
2022/03/09 11:39:54;;;;;;;;;;;;;;;;;;5136176;27;19928;-71
2022/03/09 11:42:20;;;;;;;;;;;;;;;;;;5133130;27;19922;-70
2022/03/09 11:44:46;;;;;;;;;;;;;;;;;;5134761;27;19911;-70
2022/03/09 11:47:12;;;;;;;;;;;;;;;;;;5133368;27;19907;-70
2022/03/09 11:49:38;;;;;;;;;;;;;;;;;;5134662;27;19914;-70
2022/03/09 11:52:04;;;;;;;;;;;;;;;;;;5134026;27;20369;-70
2022/03/09 11:54:30;;;;;;;;;;;;;;;;;;5133603;27;19929;-70
2022/03/09 11:56:56;;;;;;;;;;;;;;;;;;5134746;27;20323;-70
2022/03/09 11:59:25;;;;;;;;;;;;;;;;;;5135069;27;19957;-70
2022/03/09 12:01:51;;;;;;;;;;;;;;;;;;5135239;27;19919;-71
2022/03/09 12:04:17;;;;;;;;;;;;;;;;;;5136021;27;20004;-71
2022/03/09 12:06:43;;;;;;;;;;;;;;;;;;5135838;27;19941;-72
2022/03/09 12:09:09;;;;;;;;;;;;;;;;;;5134478;27;19998;-71
2022/03/09 12:11:35;;;;;;;;;;;;;;;;;;5133228;27;19908;-71
2022/03/09 12:14:01;;;;;;;;;;;;;;;;;;5135869;27;19914;-72
2022/03/09 12:16:28;;;;;;;;;;;;;;;;;;5135909;27;19914;-70
2022/03/09 12:18:54;;;;;;;;;;;;;;;;;;5135570;27;19907;-70
2022/03/09 12:21:20;;;;;;;;;;;;;;;;;;5135857;27;19922;-71
2022/03/09 12:23:47;;;;;;;;;;;;;;;;;;5135708;27;19985;-72
2022/03/09 12:26:13;;;;;;;;;;;;;;;;;;5135280;27;19911;-73
2022/03/09 12:28:39;;;;;;;;;;;;;;;;;;5117293;27;20315;-72
2022/03/09 12:31:05;;;;;;;;;;;;;;;;;;5117276;27;19964;-70
2022/03/09 12:33:31;;;;;;;;;;;;;;;;;;5134942;27;19907;-69
2022/03/09 12:35:57;;;;;;;;;;;;;;;;;;5135272;27;20322;-70
2022/03/09 12:38:23;;;;;;;;;;;;;;;;;;5133590;27;19907;-69
2022/03/09 12:40:49;;;;;;;;;;;;;;;;;;5133790;27;19949;-69
2022/03/09 12:43:15;;;;;;;;;;;;;;;;;;5135364;27;19919;-68
2022/03/09 12:45:41;;;;;;;;;;;;;;;;;;5134737;27;19918;-68
2022/03/09 12:48:07;;;;;;;;;;;;;;;;;;5134808;27;20333;-67
2022/03/09 12:50:35;;;;;;;;;;;;;;;;;;5135010;27;20349;-70
2022/03/09 12:53:00;;;;;;;;;;;;;;;;;;5116430;27;19915;-68
2022/03/09 12:55:27;;;;;;;;;;;;;;;;;;5134583;27;20379;-70
2022/03/09 13:00:06;;;;;;;;;;;;;;;;;;5111271;27;19942;-69
2022/03/09 13:02:32;;;;;;;;;;;;;;;;;;5109368;28;19934;-69
2022/03/09 13:04:58;;;;;;;;;;;;;;;;;;5110683;28;19908;-70
2022/03/09 13:07:24;;;;;;;;;;;;;;;;;;5109374;28;20037;-69
2022/03/09 13:09:50;;;;;;;;;;;;;;;;;;5110407;28;19908;-70
2022/03/09 13:16:04;;;;;;;;;;;;;;;;;;5151754;27;20389;-69
2022/03/09 13:18:30;;;;;;;;;;;;;;;;;;5151665;27;19946;-68
2022/03/09 13:24:29;;;;;;;;;;;;;;;;;;5090893;27;19969;-70
2022/03/09 13:28:48;;;;;;;;;;;;;;;;;;5110008;27;20313;-70
2022/03/09 13:31:16;;;;;;;;;;;;;;;;;;5110546;28;19958;-71
2022/03/09 13:34:06;;;;;;;;;;;;;;;;;;5090383;27;19916;-70
2022/03/09 13:36:32;;;;;;;;;;;;;;;;;;5089972;28;19947;-70
2022/03/09 13:39:26;;;;;;;;;;;;;;;;;;5090595;27;19912;-70
2022/03/09 13:41:52;;;;;;;;;;;;;;;;;;5089528;28;19952;-70
2022/03/09 13:44:18;;;;;;;;;;;;;;;;;;5090286;28;19909;-69
2022/03/09 13:51:39;;;;;;;;;;;;;;;;;;5087036;27;2425989;-70
2022/03/09 13:54:05;;;;;;;;;;;;;;;;;;5157537;27;20286;-70
2022/03/09 13:57:57;;;;;;;;;;;;;;;;;;5090362;27;19912;-67
2022/03/09 14:00:49;;;;;;;;;;;;;;;;;;5090925;27;19924;-72
2022/03/09 14:03:15;;;;;;;;;;;;;;;;;;5090718;28;19955;-68
2022/03/09 14:05:42;;;;;;;;;;;;;;;;;;5090832;28;19908;-69
2022/03/09 14:08:08;;;;;;;;;;;;;;;;;;5090743;28;19908;-69
2022/03/09 14:10:36;;;;;;;;;;;;;;;;;;5090651;28;20296;-70
2022/03/09 14:13:02;;;;;;;;;;;;;;;;;;5089944;28;19909;-69
2022/03/09 14:15:28;;;;;;;;;;;;;;;;;;5090703;28;20428;-67
2022/03/09 14:17:56;;;;;;;;;;;;;;;;;;5090650;28;19909;-68
2022/03/09 14:20:23;;;;;;;;;;;;;;;;;;5090178;28;19916;-68
2022/03/09 14:22:49;;;;;;;;;;;;;;;;;;5090610;28;19912;-68
2022/03/09 14:25:15;;;;;;;;;;;;;;;;;;5088607;28;19909;-69
2022/03/09 14:27:41;;;;;;;;;;;;;;;;;;5090420;28;19915;-69
2022/03/09 14:30:07;;;;;;;;;;;;;;;;;;5090248;28;19912;-67
2022/03/09 14:32:33;;;;;;;;;;;;;;;;;;5088667;28;20361;-68
2022/03/09 14:34:59;;;;;;;;;;;;;;;;;;5090477;28;19908;-68
2022/03/09 14:37:25;;;;;;;;;;;;;;;;;;5089303;28;20442;-68
2022/03/09 14:39:51;;;;;;;;;;;;;;;;;;5088961;28;19916;-70
2022/03/09 14:42:17;;;;;;;;;;;;;;;;;;5089270;28;19912;-68
2022/03/09 14:44:43;;;;;;;;;;;;;;;;;;5089516;28;19914;-69
2022/03/09 14:47:12;;;;;;;;;;;;;;;;;;5088743;28;19992;-69
2022/03/09 14:49:38;;;;;;;;;;;;;;;;;;5090388;28;19912;-69
2022/03/09 14:52:04;;;;;;;;;;;;;;;;;;5090548;28;19961;-68
2022/03/09 14:54:31;;;;;;;;;;;;;;;;;;5089869;28;19908;-69
2022/03/09 14:56:57;;;;;;;;;;;;;;;;;;5090864;28;19919;-69
2022/03/09 14:59:25;;;;;;;;;;;;;;;;;;5098727;28;19920;-69
2022/03/09 15:01:53;;;;;;;;;;;;;;;;;;5110092;28;19908;-69
2022/03/09 15:04:19;;;;;;;;;;;;;;;;;;5092278;28;19908;-70
2022/03/09 15:06:47;;;;;;;;;;;;;;;;;;5092337;28;19908;-68
2022/03/09 15:09:13;;;;;;;;;;;;;;;;;;5091726;28;19943;-69
2022/03/09 15:11:39;;;;;;;;;;;;;;;;;;5099979;28;19951;-69
2022/03/09 15:14:05;;;;;;;;;;;;;;;;;;5076820;28;19908;-68
2022/03/09 15:16:31;;;;;;;;;;;;;;;;;;5077885;28;20387;-68
2022/03/09 15:18:57;;;;;;;;;;;;;;;;;;5095335;28;20003;-68
2022/03/09 15:21:23;;;;;;;;;;;;;;;;;;5096055;28;19908;-68
2022/03/09 15:23:50;;;;;;;;;;;;;;;;;;5077205;28;19908;-68
2022/03/09 15:26:17;;;;;;;;;;;;;;;;;;5096310;28;20360;-69
2022/03/09 15:28:43;;;;;;;;;;;;;;;;;;5095864;28;19916;-69
2022/03/09 15:31:09;;;;;;;;;;;;;;;;;;5096070;28;19999;-68
2022/03/09 15:33:35;;;;;;;;;;;;;;;;;;5096288;28;19908;-68
2022/03/09 15:36:01;;;;;;;;;;;;;;;;;;5077617;28;19908;-71
2022/03/09 15:38:27;;;;;;;;;;;;;;;;;;5077856;28;19908;-69
2022/03/09 15:40:53;;;;;;;;;;;;;;;;;;5096086;28;19935;-69
2022/03/09 15:43:19;;;;;;;;;;;;;;;;;;5095491;28;19912;-69
2022/03/09 15:45:45;;;;;;;;;;;;;;;;;;5077760;28;19916;-68
2022/03/09 15:48:11;;;;;;;;;;;;;;;;;;5077825;28;20040;-68
2022/03/09 15:50:37;;;;;;;;;;;;;;;;;;5077390;28;19908;-70
2022/03/09 15:53:03;;;;;;;;;;;;;;;;;;5095662;28;20348;-69
2022/03/09 15:55:29;;;;;;;;;;;;;;;;;;5077710;28;19946;-69
2022/03/09 15:57:55;;;;;;;;;;;;;;;;;;5095281;28;19908;-69
2022/03/09 16:00:21;;;;;;;;;;;;;;;;;;5095513;28;20380;-70
2022/03/09 16:02:47;;;;;;;;;;;;;;;;;;5077556;28;20009;-70
2022/03/09 16:05:16;;;;;;;;;;;;;;;;;;5095174;28;19908;-69
2022/03/09 16:07:42;;;;;;;;;;;;;;;;;;5077378;28;20360;-68
2022/03/09 16:10:08;;;;;;;;;;;;;;;;;;5095398;28;19954;-68
2022/03/09 16:12:36;;;;;;;;;;;;;;;;;;5094764;28;19916;-68
2022/03/09 16:15:03;;;;;;;;;;;;;;;;;;5095200;28;19908;-68
2022/03/09 16:17:29;;;;;;;;;;;;;;;;;;5077002;28;20011;-68
2022/03/09 16:19:56;;;;;;;;;;;;;;;;;;5094734;28;20007;-69
2022/03/09 16:22:22;;;;;;;;;;;;;;;;;;5075894;28;19908;-68
2022/03/09 16:24:49;;;;;;;;;;;;;;;;;;5094568;28;19908;-69
2022/03/09 16:27:15;;;;;;;;;;;;;;;;;;5094547;28;19915;-68
2022/03/09 16:29:41;;;;;;;;;;;;;;;;;;5094882;28;19908;-68
2022/03/09 16:32:07;;;;;;;;;;;;;;;;;;5094538;28;19915;-69
2022/03/09 16:34:34;;;;;;;;;;;;;;;;;;5095156;28;19912;-68
2022/03/09 16:37:00;;;;;;;;;;;;;;;;;;5095250;28;19908;-68
2022/03/09 16:39:26;;;;;;;;;;;;;;;;;;5076413;28;19920;-68
2022/03/09 16:41:52;;;;;;;;;;;;;;;;;;5095008;28;19912;-68
2022/03/09 16:44:18;;;;;;;;;;;;;;;;;;5075361;28;19908;-68
2022/03/09 16:46:44;;;;;;;;;;;;;;;;;;5094412;28;19939;-68
2022/03/09 16:49:12;;;;;;;;;;;;;;;;;;5095005;28;19931;-68
2022/03/09 16:51:38;;;;;;;;;;;;;;;;;;5095096;28;20440;-68
2022/03/09 16:54:04;;;;;;;;;;;;;;;;;;5075963;28;19991;-68
2022/03/09 16:56:30;;;;;;;;;;;;;;;;;;5094664;28;19908;-68